sensor_id;sensor_type;location;lat;lon;timestamp;temperature;humidity
18101;DHT22;9177;49.156;8.142;2022-10-29T00:01:04;21.80;99.90
18101;DHT22;9177;49.156;8.142;2022-10-29T00:03:31;21.70;99.90
18101;DHT22;9177;49.156;8.142;2022-10-29T00:06:00;21.80;99.90
18101;DHT22;9177;49.156;8.142;2022-10-29T00:08:30;21.80;99.90
18101;DHT22;9177;49.156;8.142;2022-10-29T00:11:04;21.70;99.90
18101;DHT22;9177;49.156;8.142;2022-10-29T00:13:32;21.70;99.90
18101;DHT22;9177;49.156;8.142;2022-10-29T00:15:59;21.70;99.90
18101;DHT22;9177;49.156;8.142;2022-10-29T00:18:29;21.80;99.90
18101;DHT22;9177;49.156;8.142;2022-10-29T00:21:03;21.70;99.90
18101;DHT22;9177;49.156;8.142;2022-10-29T00:23:31;21.80;99.90
18101;DHT22;9177;49.156;8.142;2022-10-29T00:25:59;21.70;99.90
18101;DHT22;9177;49.156;8.142;2022-10-29T00:28:27;21.70;99.90
18101;DHT22;9177;49.156;8.142;2022-10-29T00:30:54;21.70;99.90
18101;DHT22;9177;49.156;8.142;2022-10-29T00:33:21;21.70;99.90
18101;DHT22;9177;49.156;8.142;2022-10-29T00:35:55;21.70;99.90
18101;DHT22;9177;49.156;8.142;2022-10-29T00:38:22;21.70;99.90
18101;DHT22;9177;49.156;8.142;2022-10-29T00:40:50;21.70;99.90
18101;DHT22;9177;49.156;8.142;2022-10-29T00:43:21;21.70;99.90
18101;DHT22;9177;49.156;8.142;2022-10-29T00:45:52;21.70;99.90
18101;DHT22;9177;49.156;8.142;2022-10-29T00:48:20;21.70;99.90
18101;DHT22;9177;49.156;8.142;2022-10-29T00:50:49;21.70;99.90
18101;DHT22;9177;49.156;8.142;2022-10-29T00:53:20;21.70;99.90
18101;DHT22;9177;49.156;8.142;2022-10-29T00:55:49;21.70;99.90
18101;DHT22;9177;49.156;8.142;2022-10-29T00:58:18;21.70;99.90
18101;DHT22;9177;49.156;8.142;2022-10-29T01:00:46;21.70;99.90
18101;DHT22;9177;49.156;8.142;2022-10-29T01:03:13;21.70;99.90
18101;DHT22;9177;49.156;8.142;2022-10-29T01:05:40;21.70;99.90
18101;DHT22;9177;49.156;8.142;2022-10-29T01:08:07;21.70;99.90
18101;DHT22;9177;49.156;8.142;2022-10-29T01:10:42;21.70;99.90
18101;DHT22;9177;49.156;8.142;2022-10-29T01:13:20;21.70;99.90
18101;DHT22;9177;49.156;8.142;2022-10-29T01:15:57;21.70;99.90
18101;DHT22;9177;49.156;8.142;2022-10-29T01:18:31;21.70;99.90
18101;DHT22;9177;49.156;8.142;2022-10-29T01:21:32;21.70;99.90
18101;DHT22;9177;49.156;8.142;2022-10-29T01:24:26;21.70;99.90
18101;DHT22;9177;49.156;8.142;2022-10-29T01:27:30;21.70;99.90
18101;DHT22;9177;49.156;8.142;2022-10-29T01:30:12;21.70;99.90
18101;DHT22;9177;49.156;8.142;2022-10-29T01:32:54;21.70;99.90
18101;DHT22;9177;49.156;8.142;2022-10-29T01:35:30;21.70;99.90
18101;DHT22;9177;49.156;8.142;2022-10-29T01:38:08;21.70;99.90
18101;DHT22;9177;49.156;8.142;2022-10-29T01:40:42;21.70;99.90
18101;DHT22;9177;49.156;8.142;2022-10-29T01:43:16;21.60;99.90
18101;DHT22;9177;49.156;8.142;2022-10-29T01:45:48;21.60;99.90
18101;DHT22;9177;49.156;8.142;2022-10-29T01:48:21;21.60;99.90
18101;DHT22;9177;49.156;8.142;2022-10-29T01:50:52;21.70;99.90
18101;DHT22;9177;49.156;8.142;2022-10-29T01:53:20;21.70;99.90
18101;DHT22;9177;49.156;8.142;2022-10-29T01:55:48;21.70;99.90
18101;DHT22;9177;49.156;8.142;2022-10-29T01:58:15;21.70;99.90
18101;DHT22;9177;49.156;8.142;2022-10-29T02:00:49;21.70;99.90
18101;DHT22;9177;49.156;8.142;2022-10-29T02:03:32;21.70;99.90
18101;DHT22;9177;49.156;8.142;2022-10-29T02:06:09;21.70;99.90
18101;DHT22;9177;49.156;8.142;2022-10-29T02:08:43;21.70;99.90
18101;DHT22;9177;49.156;8.142;2022-10-29T02:11:17;21.70;99.90
18101;DHT22;9177;49.156;8.142;2022-10-29T02:13:48;21.70;99.90
18101;DHT22;9177;49.156;8.142;2022-10-29T02:16:16;21.70;99.90
18101;DHT22;9177;49.156;8.142;2022-10-29T02:18:46;21.60;99.90
18101;DHT22;9177;49.156;8.142;2022-10-29T02:21:14;21.70;99.90
18101;DHT22;9177;49.156;8.142;2022-10-29T02:23:41;21.60;99.90
18101;DHT22;9177;49.156;8.142;2022-10-29T02:26:09;21.60;99.90
18101;DHT22;9177;49.156;8.142;2022-10-29T02:28:35;21.60;99.90
18101;DHT22;9177;49.156;8.142;2022-10-29T02:31:02;21.60;99.90
18101;DHT22;9177;49.156;8.142;2022-10-29T02:33:29;21.60;99.90
18101;DHT22;9177;49.156;8.142;2022-10-29T02:35:58;21.60;99.90
18101;DHT22;9177;49.156;8.142;2022-10-29T02:38:25;21.60;99.90
18101;DHT22;9177;49.156;8.142;2022-10-29T02:40:52;21.60;99.90
18101;DHT22;9177;49.156;8.142;2022-10-29T02:43:19;21.60;99.90
18101;DHT22;9177;49.156;8.142;2022-10-29T02:45:46;21.60;99.90
18101;DHT22;9177;49.156;8.142;2022-10-29T02:48:13;21.60;99.90
18101;DHT22;9177;49.156;8.142;2022-10-29T02:50:39;21.60;99.90
18101;DHT22;9177;49.156;8.142;2022-10-29T02:53:08;21.60;99.90
18101;DHT22;9177;49.156;8.142;2022-10-29T02:55:35;21.60;99.90
18101;DHT22;9177;49.156;8.142;2022-10-29T02:58:01;21.60;99.90
18101;DHT22;9177;49.156;8.142;2022-10-29T03:00:28;21.60;99.90
18101;DHT22;9177;49.156;8.142;2022-10-29T03:02:55;21.60;99.90
18101;DHT22;9177;49.156;8.142;2022-10-29T03:05:22;21.60;99.90
18101;DHT22;9177;49.156;8.142;2022-10-29T03:07:49;21.60;99.90
18101;DHT22;9177;49.156;8.142;2022-10-29T03:10:17;21.60;99.90
18101;DHT22;9177;49.156;8.142;2022-10-29T03:12:43;21.60;99.90
18101;DHT22;9177;49.156;8.142;2022-10-29T03:15:10;21.60;99.90
18101;DHT22;9177;49.156;8.142;2022-10-29T03:17:37;21.60;99.90
18101;DHT22;9177;49.156;8.142;2022-10-29T03:20:05;21.60;99.90
18101;DHT22;9177;49.156;8.142;2022-10-29T03:22:32;21.60;99.90
18101;DHT22;9177;49.156;8.142;2022-10-29T03:24:59;21.60;99.90
18101;DHT22;9177;49.156;8.142;2022-10-29T03:27:27;21.60;99.90
18101;DHT22;9177;49.156;8.142;2022-10-29T03:29:54;21.60;99.90
18101;DHT22;9177;49.156;8.142;2022-10-29T03:32:21;21.60;99.90
18101;DHT22;9177;49.156;8.142;2022-10-29T03:34:48;21.60;99.90
18101;DHT22;9177;49.156;8.142;2022-10-29T03:37:14;21.60;99.90
18101;DHT22;9177;49.156;8.142;2022-10-29T03:39:41;21.60;99.90
18101;DHT22;9177;49.156;8.142;2022-10-29T03:42:08;21.60;99.90
18101;DHT22;9177;49.156;8.142;2022-10-29T03:44:36;21.60;99.90
18101;DHT22;9177;49.156;8.142;2022-10-29T03:47:03;21.60;99.90
18101;DHT22;9177;49.156;8.142;2022-10-29T03:49:30;21.60;99.90
18101;DHT22;9177;49.156;8.142;2022-10-29T03:51:57;21.60;99.90
18101;DHT22;9177;49.156;8.142;2022-10-29T03:54:24;21.60;99.90
18101;DHT22;9177;49.156;8.142;2022-10-29T03:56:50;21.60;99.90
18101;DHT22;9177;49.156;8.142;2022-10-29T03:59:22;21.60;99.90
18101;DHT22;9177;49.156;8.142;2022-10-29T04:01:50;21.50;99.90
18101;DHT22;9177;49.156;8.142;2022-10-29T04:04:17;21.50;99.90
18101;DHT22;9177;49.156;8.142;2022-10-29T04:06:44;21.60;99.90
18101;DHT22;9177;49.156;8.142;2022-10-29T04:09:10;21.60;99.90
18101;DHT22;9177;49.156;8.142;2022-10-29T04:11:37;21.60;99.90
18101;DHT22;9177;49.156;8.142;2022-10-29T04:14:04;21.60;99.90
18101;DHT22;9177;49.156;8.142;2022-10-29T04:16:31;21.50;99.90
18101;DHT22;9177;49.156;8.142;2022-10-29T04:18:59;21.60;99.90
18101;DHT22;9177;49.156;8.142;2022-10-29T04:21:27;21.50;99.90
18101;DHT22;9177;49.156;8.142;2022-10-29T04:23:54;21.50;99.90
18101;DHT22;9177;49.156;8.142;2022-10-29T04:26:21;21.60;99.90
18101;DHT22;9177;49.156;8.142;2022-10-29T04:28:49;21.50;99.90
18101;DHT22;9177;49.156;8.142;2022-10-29T04:31:17;21.60;99.90
18101;DHT22;9177;49.156;8.142;2022-10-29T04:33:45;21.60;99.90
18101;DHT22;9177;49.156;8.142;2022-10-29T04:36:13;21.50;99.90
18101;DHT22;9177;49.156;8.142;2022-10-29T04:38:40;21.50;99.90
18101;DHT22;9177;49.156;8.142;2022-10-29T04:41:07;21.50;99.90
18101;DHT22;9177;49.156;8.142;2022-10-29T04:43:34;21.50;99.90
18101;DHT22;9177;49.156;8.142;2022-10-29T04:46:01;21.50;99.90
18101;DHT22;9177;49.156;8.142;2022-10-29T04:48:28;21.50;99.90
18101;DHT22;9177;49.156;8.142;2022-10-29T04:50:55;21.50;99.90
18101;DHT22;9177;49.156;8.142;2022-10-29T04:53:23;21.50;99.90
18101;DHT22;9177;49.156;8.142;2022-10-29T04:55:58;21.50;99.90
18101;DHT22;9177;49.156;8.142;2022-10-29T04:58:26;21.50;99.90
18101;DHT22;9177;49.156;8.142;2022-10-29T05:01:00;21.50;99.90
18101;DHT22;9177;49.156;8.142;2022-10-29T05:03:29;21.50;99.90
18101;DHT22;9177;49.156;8.142;2022-10-29T05:05:56;21.50;99.90
18101;DHT22;9177;49.156;8.142;2022-10-29T05:08:25;21.50;99.90
18101;DHT22;9177;49.156;8.142;2022-10-29T05:10:52;21.50;99.90
18101;DHT22;9177;49.156;8.142;2022-10-29T05:13:18;21.50;99.90
18101;DHT22;9177;49.156;8.142;2022-10-29T05:15:49;21.50;99.90
18101;DHT22;9177;49.156;8.142;2022-10-29T05:18:19;21.50;99.90
18101;DHT22;9177;49.156;8.142;2022-10-29T05:20:46;21.50;99.90
18101;DHT22;9177;49.156;8.142;2022-10-29T05:23:13;21.50;99.90
18101;DHT22;9177;49.156;8.142;2022-10-29T05:25:41;21.50;99.90
18101;DHT22;9177;49.156;8.142;2022-10-29T05:28:11;21.50;99.90
18101;DHT22;9177;49.156;8.142;2022-10-29T05:30:38;21.50;99.90
18101;DHT22;9177;49.156;8.142;2022-10-29T05:33:06;21.50;99.90
18101;DHT22;9177;49.156;8.142;2022-10-29T05:35:33;21.50;99.90
18101;DHT22;9177;49.156;8.142;2022-10-29T05:38:00;21.50;99.90
18101;DHT22;9177;49.156;8.142;2022-10-29T05:40:27;21.50;99.90
18101;DHT22;9177;49.156;8.142;2022-10-29T05:42:55;21.50;99.90
18101;DHT22;9177;49.156;8.142;2022-10-29T05:45:22;21.50;99.90
18101;DHT22;9177;49.156;8.142;2022-10-29T05:47:54;21.50;99.90
18101;DHT22;9177;49.156;8.142;2022-10-29T05:50:22;21.50;99.90
18101;DHT22;9177;49.156;8.142;2022-10-29T05:52:53;21.40;99.90
18101;DHT22;9177;49.156;8.142;2022-10-29T05:55:21;21.50;99.90
18101;DHT22;9177;49.156;8.142;2022-10-29T05:57:48;21.50;99.90
18101;DHT22;9177;49.156;8.142;2022-10-29T06:00:16;21.50;99.90
18101;DHT22;9177;49.156;8.142;2022-10-29T06:02:44;21.40;99.90
18101;DHT22;9177;49.156;8.142;2022-10-29T06:05:11;21.50;99.90
18101;DHT22;9177;49.156;8.142;2022-10-29T06:07:38;21.40;99.90
18101;DHT22;9177;49.156;8.142;2022-10-29T06:10:06;21.50;99.90
18101;DHT22;9177;49.156;8.142;2022-10-29T06:12:33;21.50;99.90
18101;DHT22;9177;49.156;8.142;2022-10-29T06:15:00;21.50;99.90
18101;DHT22;9177;49.156;8.142;2022-10-29T06:17:28;21.50;99.90
18101;DHT22;9177;49.156;8.142;2022-10-29T06:19:55;21.50;99.90
18101;DHT22;9177;49.156;8.142;2022-10-29T06:22:22;21.50;99.90
18101;DHT22;9177;49.156;8.142;2022-10-29T06:24:48;21.50;99.90
18101;DHT22;9177;49.156;8.142;2022-10-29T06:27:15;21.50;99.90
18101;DHT22;9177;49.156;8.142;2022-10-29T06:29:42;21.50;99.90
18101;DHT22;9177;49.156;8.142;2022-10-29T06:32:09;21.40;99.90
18101;DHT22;9177;49.156;8.142;2022-10-29T06:34:37;21.40;99.90
18101;DHT22;9177;49.156;8.142;2022-10-29T06:37:04;21.40;99.90
18101;DHT22;9177;49.156;8.142;2022-10-29T06:39:30;21.40;99.90
18101;DHT22;9177;49.156;8.142;2022-10-29T06:41:58;21.40;99.90
18101;DHT22;9177;49.156;8.142;2022-10-29T06:44:24;21.40;99.90
18101;DHT22;9177;49.156;8.142;2022-10-29T06:46:51;21.40;99.90
18101;DHT22;9177;49.156;8.142;2022-10-29T06:49:19;21.40;99.90
18101;DHT22;9177;49.156;8.142;2022-10-29T06:51:47;21.40;99.90
18101;DHT22;9177;49.156;8.142;2022-10-29T06:54:14;21.40;99.90
18101;DHT22;9177;49.156;8.142;2022-10-29T06:56:41;21.40;99.90
18101;DHT22;9177;49.156;8.142;2022-10-29T06:59:08;21.40;99.90
18101;DHT22;9177;49.156;8.142;2022-10-29T07:01:35;21.40;99.90
18101;DHT22;9177;49.156;8.142;2022-10-29T07:04:02;21.40;99.90
18101;DHT22;9177;49.156;8.142;2022-10-29T07:06:31;21.40;99.90
18101;DHT22;9177;49.156;8.142;2022-10-29T07:09:00;21.40;99.90
18101;DHT22;9177;49.156;8.142;2022-10-29T07:11:31;21.40;99.90
18101;DHT22;9177;49.156;8.142;2022-10-29T07:13:58;21.40;99.90
18101;DHT22;9177;49.156;8.142;2022-10-29T07:16:25;21.40;99.90
18101;DHT22;9177;49.156;8.142;2022-10-29T07:18:52;21.40;99.90
18101;DHT22;9177;49.156;8.142;2022-10-29T07:21:19;21.40;99.90
18101;DHT22;9177;49.156;8.142;2022-10-29T07:23:46;21.40;99.90
18101;DHT22;9177;49.156;8.142;2022-10-29T07:26:14;21.40;99.90
18101;DHT22;9177;49.156;8.142;2022-10-29T07:28:41;21.50;99.90
18101;DHT22;9177;49.156;8.142;2022-10-29T07:31:08;21.40;99.90
18101;DHT22;9177;49.156;8.142;2022-10-29T07:33:34;21.40;99.90
18101;DHT22;9177;49.156;8.142;2022-10-29T07:36:02;21.50;99.90
18101;DHT22;9177;49.156;8.142;2022-10-29T07:38:28;21.50;99.90
18101;DHT22;9177;49.156;8.142;2022-10-29T07:40:55;21.40;99.90
18101;DHT22;9177;49.156;8.142;2022-10-29T07:43:23;21.50;99.90
18101;DHT22;9177;49.156;8.142;2022-10-29T07:45:50;21.40;99.90
18101;DHT22;9177;49.156;8.142;2022-10-29T07:48:20;21.50;99.90
18101;DHT22;9177;49.156;8.142;2022-10-29T07:50:47;21.50;99.90
18101;DHT22;9177;49.156;8.142;2022-10-29T07:53:15;21.50;99.90
18101;DHT22;9177;49.156;8.142;2022-10-29T07:55:50;21.50;99.90
18101;DHT22;9177;49.156;8.142;2022-10-29T07:58:17;21.50;99.90
18101;DHT22;9177;49.156;8.142;2022-10-29T08:00:45;21.50;99.90
18101;DHT22;9177;49.156;8.142;2022-10-29T08:03:12;21.60;99.90
18101;DHT22;9177;49.156;8.142;2022-10-29T08:05:39;21.60;99.90
18101;DHT22;9177;49.156;8.142;2022-10-29T08:08:07;21.60;99.90
18101;DHT22;9177;49.156;8.142;2022-10-29T08:10:35;21.70;99.90
18101;DHT22;9177;49.156;8.142;2022-10-29T08:13:03;21.70;99.90
18101;DHT22;9177;49.156;8.142;2022-10-29T08:15:32;21.70;99.90
18101;DHT22;9177;49.156;8.142;2022-10-29T08:18:01;21.80;99.90
18101;DHT22;9177;49.156;8.142;2022-10-29T08:20:28;21.80;99.90
18101;DHT22;9177;49.156;8.142;2022-10-29T08:22:58;21.80;99.90
18101;DHT22;9177;49.156;8.142;2022-10-29T08:25:25;21.90;99.90
18101;DHT22;9177;49.156;8.142;2022-10-29T08:27:59;21.90;99.90
18101;DHT22;9177;49.156;8.142;2022-10-29T08:30:26;21.90;99.90
18101;DHT22;9177;49.156;8.142;2022-10-29T08:32:53;21.90;99.90
18101;DHT22;9177;49.156;8.142;2022-10-29T08:35:22;22.00;99.90
18101;DHT22;9177;49.156;8.142;2022-10-29T08:37:49;22.00;99.90
18101;DHT22;9177;49.156;8.142;2022-10-29T08:40:26;21.90;99.90
18101;DHT22;9177;49.156;8.142;2022-10-29T08:43:16;21.90;99.90
18101;DHT22;9177;49.156;8.142;2022-10-29T08:45:50;21.90;99.90
18101;DHT22;9177;49.156;8.142;2022-10-29T08:48:25;21.90;99.90
18101;DHT22;9177;49.156;8.142;2022-10-29T08:50:58;21.90;99.90
18101;DHT22;9177;49.156;8.142;2022-10-29T08:53:32;21.90;99.90
18101;DHT22;9177;49.156;8.142;2022-10-29T08:56:03;21.90;99.90
18101;DHT22;9177;49.156;8.142;2022-10-29T08:58:35;22.00;99.90
18101;DHT22;9177;49.156;8.142;2022-10-29T09:01:08;22.00;99.90
18101;DHT22;9177;49.156;8.142;2022-10-29T09:03:36;22.00;99.90
18101;DHT22;9177;49.156;8.142;2022-10-29T09:06:10;22.00;99.90
18101;DHT22;9177;49.156;8.142;2022-10-29T09:08:46;22.10;99.90
18101;DHT22;9177;49.156;8.142;2022-10-29T09:11:31;22.10;99.90
18101;DHT22;9177;49.156;8.142;2022-10-29T09:14:21;22.10;99.90
18101;DHT22;9177;49.156;8.142;2022-10-29T09:16:58;22.10;99.90
18101;DHT22;9177;49.156;8.142;2022-10-29T09:19:44;22.10;99.90
18101;DHT22;9177;49.156;8.142;2022-10-29T09:22:22;22.10;99.90
18101;DHT22;9177;49.156;8.142;2022-10-29T09:24:59;22.20;99.90
18101;DHT22;9177;49.156;8.142;2022-10-29T09:27:41;22.20;99.90
18101;DHT22;9177;49.156;8.142;2022-10-29T09:30:14;22.10;99.90
18101;DHT22;9177;49.156;8.142;2022-10-29T09:32:48;22.20;99.90
18101;DHT22;9177;49.156;8.142;2022-10-29T09:35:18;22.20;99.90
18101;DHT22;9177;49.156;8.142;2022-10-29T09:37:50;22.20;99.90
18101;DHT22;9177;49.156;8.142;2022-10-29T09:40:28;22.20;99.90
18101;DHT22;9177;49.156;8.142;2022-10-29T09:42:58;22.30;99.90
18101;DHT22;9177;49.156;8.142;2022-10-29T09:45:40;22.30;99.90
18101;DHT22;9177;49.156;8.142;2022-10-29T09:48:18;22.40;99.90
18101;DHT22;9177;49.156;8.142;2022-10-29T09:50:52;22.40;99.90
18101;DHT22;9177;49.156;8.142;2022-10-29T09:53:22;22.50;99.90
18101;DHT22;9177;49.156;8.142;2022-10-29T09:55:49;22.50;99.90
18101;DHT22;9177;49.156;8.142;2022-10-29T09:58:20;22.50;99.90
18101;DHT22;9177;49.156;8.142;2022-10-29T10:00:47;22.60;99.90
18101;DHT22;9177;49.156;8.142;2022-10-29T10:03:19;22.60;99.90
18101;DHT22;9177;49.156;8.142;2022-10-29T10:05:58;22.60;99.90
18101;DHT22;9177;49.156;8.142;2022-10-29T10:08:27;22.60;99.90
18101;DHT22;9177;49.156;8.142;2022-10-29T10:10:56;22.70;99.90
18101;DHT22;9177;49.156;8.142;2022-10-29T10:13:26;22.70;99.90
18101;DHT22;9177;49.156;8.142;2022-10-29T10:15:55;22.80;99.90
18101;DHT22;9177;49.156;8.142;2022-10-29T10:18:39;22.80;99.90
18101;DHT22;9177;49.156;8.142;2022-10-29T10:21:08;22.80;99.90
18101;DHT22;9177;49.156;8.142;2022-10-29T10:23:44;22.90;99.90
18101;DHT22;9177;49.156;8.142;2022-10-29T10:26:32;22.90;99.90
18101;DHT22;9177;49.156;8.142;2022-10-29T10:29:11;22.90;99.90
18101;DHT22;9177;49.156;8.142;2022-10-29T10:31:39;22.90;99.90
18101;DHT22;9177;49.156;8.142;2022-10-29T10:34:15;23.00;99.90
18101;DHT22;9177;49.156;8.142;2022-10-29T10:36:43;23.00;99.90
18101;DHT22;9177;49.156;8.142;2022-10-29T10:39:31;23.00;99.90
18101;DHT22;9177;49.156;8.142;2022-10-29T10:42:02;23.10;99.90
18101;DHT22;9177;49.156;8.142;2022-10-29T10:44:30;23.10;99.90
18101;DHT22;9177;49.156;8.142;2022-10-29T10:47:04;23.10;99.90
18101;DHT22;9177;49.156;8.142;2022-10-29T10:49:34;23.10;99.90
18101;DHT22;9177;49.156;8.142;2022-10-29T10:52:03;23.10;99.90
18101;DHT22;9177;49.156;8.142;2022-10-29T10:54:35;23.20;99.90
18101;DHT22;9177;49.156;8.142;2022-10-29T10:57:20;23.20;99.90
18101;DHT22;9177;49.156;8.142;2022-10-29T10:59:56;23.20;99.90
18101;DHT22;9177;49.156;8.142;2022-10-29T11:02:31;23.20;99.90
18101;DHT22;9177;49.156;8.142;2022-10-29T11:05:02;23.30;99.90
18101;DHT22;9177;49.156;8.142;2022-10-29T11:07:38;23.30;99.90
18101;DHT22;9177;49.156;8.142;2022-10-29T11:10:11;23.30;99.90
18101;DHT22;9177;49.156;8.142;2022-10-29T11:12:41;23.40;99.90
18101;DHT22;9177;49.156;8.142;2022-10-29T11:15:14;23.40;99.90
18101;DHT22;9177;49.156;8.142;2022-10-29T11:17:47;23.40;99.90
18101;DHT22;9177;49.156;8.142;2022-10-29T11:20:21;23.40;99.90
18101;DHT22;9177;49.156;8.142;2022-10-29T11:22:58;23.50;99.90
18101;DHT22;9177;49.156;8.142;2022-10-29T11:25:34;23.50;99.90
18101;DHT22;9177;49.156;8.142;2022-10-29T11:28:18;23.60;99.90
18101;DHT22;9177;49.156;8.142;2022-10-29T11:30:50;23.60;99.90
18101;DHT22;9177;49.156;8.142;2022-10-29T11:33:23;23.60;99.90
18101;DHT22;9177;49.156;8.142;2022-10-29T11:35:56;23.60;99.90
18101;DHT22;9177;49.156;8.142;2022-10-29T11:38:29;23.60;99.90
18101;DHT22;9177;49.156;8.142;2022-10-29T11:41:01;23.60;99.90
18101;DHT22;9177;49.156;8.142;2022-10-29T11:43:31;23.60;99.90
18101;DHT22;9177;49.156;8.142;2022-10-29T11:46:03;23.60;99.90
18101;DHT22;9177;49.156;8.142;2022-10-29T11:48:43;23.60;99.90
18101;DHT22;9177;49.156;8.142;2022-10-29T11:51:20;23.70;99.90
18101;DHT22;9177;49.156;8.142;2022-10-29T11:54:00;23.70;99.90
18101;DHT22;9177;49.156;8.142;2022-10-29T11:56:40;23.70;99.90
18101;DHT22;9177;49.156;8.142;2022-10-29T11:59:15;23.70;99.90
18101;DHT22;9177;49.156;8.142;2022-10-29T12:01:53;23.60;99.90
18101;DHT22;9177;49.156;8.142;2022-10-29T12:04:26;23.70;99.90
18101;DHT22;9177;49.156;8.142;2022-10-29T12:07:20;23.70;99.90
18101;DHT22;9177;49.156;8.142;2022-10-29T12:10:15;23.60;99.90
18101;DHT22;9177;49.156;8.142;2022-10-29T12:12:50;23.70;99.90
18101;DHT22;9177;49.156;8.142;2022-10-29T12:15:22;23.60;99.90
18101;DHT22;9177;49.156;8.142;2022-10-29T12:17:57;23.60;99.90
18101;DHT22;9177;49.156;8.142;2022-10-29T12:20:31;23.60;99.90
18101;DHT22;9177;49.156;8.142;2022-10-29T12:23:10;23.60;99.90
18101;DHT22;9177;49.156;8.142;2022-10-29T12:25:55;23.60;99.90
18101;DHT22;9177;49.156;8.142;2022-10-29T12:28:35;23.50;99.90
18101;DHT22;9177;49.156;8.142;2022-10-29T12:31:18;23.40;99.90
18101;DHT22;9177;49.156;8.142;2022-10-29T12:33:52;23.40;99.90
18101;DHT22;9177;49.156;8.142;2022-10-29T12:36:29;23.40;99.90
18101;DHT22;9177;49.156;8.142;2022-10-29T12:39:03;23.40;99.90
18101;DHT22;9177;49.156;8.142;2022-10-29T12:41:35;23.40;99.90
18101;DHT22;9177;49.156;8.142;2022-10-29T12:44:07;23.40;99.90
18101;DHT22;9177;49.156;8.142;2022-10-29T12:46:38;23.40;99.90
18101;DHT22;9177;49.156;8.142;2022-10-29T12:49:12;23.30;99.90
18101;DHT22;9177;49.156;8.142;2022-10-29T12:51:44;23.30;99.90
18101;DHT22;9177;49.156;8.142;2022-10-29T12:54:25;23.20;99.90
18101;DHT22;9177;49.156;8.142;2022-10-29T12:56:53;23.20;99.90
18101;DHT22;9177;49.156;8.142;2022-10-29T12:59:30;23.20;99.90
18101;DHT22;9177;49.156;8.142;2022-10-29T13:02:29;23.10;99.90
18101;DHT22;9177;49.156;8.142;2022-10-29T13:05:35;23.10;99.90
18101;DHT22;9177;49.156;8.142;2022-10-29T13:08:18;23.10;99.90
18101;DHT22;9177;49.156;8.142;2022-10-29T13:10:48;23.00;99.90
18101;DHT22;9177;49.156;8.142;2022-10-29T13:13:37;23.10;99.90
18101;DHT22;9177;49.156;8.142;2022-10-29T13:16:13;23.10;99.90
18101;DHT22;9177;49.156;8.142;2022-10-29T13:18:51;23.10;99.90
18101;DHT22;9177;49.156;8.142;2022-10-29T13:21:57;23.10;99.90
18101;DHT22;9177;49.156;8.142;2022-10-29T13:24:26;23.20;99.90
18101;DHT22;9177;49.156;8.142;2022-10-29T13:26:55;23.20;99.90
18101;DHT22;9177;49.156;8.142;2022-10-29T13:29:42;23.30;99.90
18101;DHT22;9177;49.156;8.142;2022-10-29T13:32:29;23.30;99.90
18101;DHT22;9177;49.156;8.142;2022-10-29T13:34:57;23.30;99.90
18101;DHT22;9177;49.156;8.142;2022-10-29T13:37:47;23.30;99.90
18101;DHT22;9177;49.156;8.142;2022-10-29T13:43:29;23.30;99.90
18101;DHT22;9177;49.156;8.142;2022-10-29T13:46:33;23.30;99.90
18101;DHT22;9177;49.156;8.142;2022-10-29T13:49:09;23.30;99.90
18101;DHT22;9177;49.156;8.142;2022-10-29T13:51:47;23.30;99.90
18101;DHT22;9177;49.156;8.142;2022-10-29T13:54:20;23.20;99.90
18101;DHT22;9177;49.156;8.142;2022-10-29T13:56:52;23.20;99.90
18101;DHT22;9177;49.156;8.142;2022-10-29T13:59:27;23.20;99.90
18101;DHT22;9177;49.156;8.142;2022-10-29T14:02:23;23.20;99.90
18101;DHT22;9177;49.156;8.142;2022-10-29T14:04:55;23.20;99.90
18101;DHT22;9177;49.156;8.142;2022-10-29T14:07:29;23.10;99.90
18101;DHT22;9177;49.156;8.142;2022-10-29T14:10:03;23.10;99.90
18101;DHT22;9177;49.156;8.142;2022-10-29T14:12:32;23.10;99.90
18101;DHT22;9177;49.156;8.142;2022-10-29T14:15:03;23.00;99.90
18101;DHT22;9177;49.156;8.142;2022-10-29T14:17:31;23.00;99.90
18101;DHT22;9177;49.156;8.142;2022-10-29T14:20:00;23.00;99.90
18101;DHT22;9177;49.156;8.142;2022-10-29T14:22:35;22.90;99.90
18101;DHT22;9177;49.156;8.142;2022-10-29T14:25:26;22.90;99.90
18101;DHT22;9177;49.156;8.142;2022-10-29T14:28:14;22.90;99.90
18101;DHT22;9177;49.156;8.142;2022-10-29T14:30:42;22.90;99.90
18101;DHT22;9177;49.156;8.142;2022-10-29T14:33:22;22.80;99.90
18101;DHT22;9177;49.156;8.142;2022-10-29T14:35:52;22.80;99.90
18101;DHT22;9177;49.156;8.142;2022-10-29T14:38:25;22.80;99.90
18101;DHT22;9177;49.156;8.142;2022-10-29T14:40:58;22.80;99.90
18101;DHT22;9177;49.156;8.142;2022-10-29T14:43:26;22.80;99.90
18101;DHT22;9177;49.156;8.142;2022-10-29T14:45:55;22.80;99.90
18101;DHT22;9177;49.156;8.142;2022-10-29T14:48:35;22.70;99.90
18101;DHT22;9177;49.156;8.142;2022-10-29T14:51:04;22.70;99.90
18101;DHT22;9177;49.156;8.142;2022-10-29T14:53:33;22.70;99.90
18101;DHT22;9177;49.156;8.142;2022-10-29T14:56:07;22.70;99.90
18101;DHT22;9177;49.156;8.142;2022-10-29T14:58:35;22.70;99.90
18101;DHT22;9177;49.156;8.142;2022-10-29T15:01:12;22.60;99.90
18101;DHT22;9177;49.156;8.142;2022-10-29T15:03:40;22.60;99.90
18101;DHT22;9177;49.156;8.142;2022-10-29T15:06:12;22.60;99.90
18101;DHT22;9177;49.156;8.142;2022-10-29T15:08:40;22.60;99.90
18101;DHT22;9177;49.156;8.142;2022-10-29T15:11:35;22.60;99.90
18101;DHT22;9177;49.156;8.142;2022-10-29T15:14:04;22.60;99.90
18101;DHT22;9177;49.156;8.142;2022-10-29T15:16:47;22.60;99.90
18101;DHT22;9177;49.156;8.142;2022-10-29T15:19:15;22.50;99.90
18101;DHT22;9177;49.156;8.142;2022-10-29T15:21:47;22.50;99.90
18101;DHT22;9177;49.156;8.142;2022-10-29T15:24:17;22.50;99.90
18101;DHT22;9177;49.156;8.142;2022-10-29T15:26:47;22.50;99.90
18101;DHT22;9177;49.156;8.142;2022-10-29T15:29:20;22.50;99.90
18101;DHT22;9177;49.156;8.142;2022-10-29T15:31:48;22.50;99.90
18101;DHT22;9177;49.156;8.142;2022-10-29T15:34:19;22.50;99.90
18101;DHT22;9177;49.156;8.142;2022-10-29T15:36:52;22.50;99.90
18101;DHT22;9177;49.156;8.142;2022-10-29T15:39:22;22.40;99.90
18101;DHT22;9177;49.156;8.142;2022-10-29T15:41:53;22.40;99.90
18101;DHT22;9177;49.156;8.142;2022-10-29T15:44:41;22.40;99.90
18101;DHT22;9177;49.156;8.142;2022-10-29T15:47:20;22.40;99.90
18101;DHT22;9177;49.156;8.142;2022-10-29T15:49:47;22.40;99.90
18101;DHT22;9177;49.156;8.142;2022-10-29T15:52:17;22.40;99.90
18101;DHT22;9177;49.156;8.142;2022-10-29T15:54:44;22.40;99.90
18101;DHT22;9177;49.156;8.142;2022-10-29T15:57:12;22.40;99.90
18101;DHT22;9177;49.156;8.142;2022-10-29T15:59:40;22.40;99.90
18101;DHT22;9177;49.156;8.142;2022-10-29T16:02:11;22.30;99.90
18101;DHT22;9177;49.156;8.142;2022-10-29T16:04:38;22.30;99.90
18101;DHT22;9177;49.156;8.142;2022-10-29T16:07:07;22.30;99.90
18101;DHT22;9177;49.156;8.142;2022-10-29T16:09:41;22.30;99.90
18101;DHT22;9177;49.156;8.142;2022-10-29T16:12:09;22.30;99.90
18101;DHT22;9177;49.156;8.142;2022-10-29T16:14:36;22.30;99.90
18101;DHT22;9177;49.156;8.142;2022-10-29T16:17:05;22.30;99.90